Main page
METAR-TAF:

METAR-TAF

Airports :

Vlissingen, Netherlands

latitude: 51-27N, longitude: 3-36E, elevation: 10 m

Current weather observation

The report was made 34 minutes ago, at 13:25 UTC
Wind 18 kt from the Southwest
Temperature 18°C
Humidity 88%
Pressure 1014 hPa
Visibility 10 km or more

METAR: EHFS 241325Z AUTO 23018KT 9999 OVC014/// 18/16 Q1014

Time: 15:59 (13:59 UTC)


TAF: missing

Weather observations and forecasts of more than 4000 airports (METAR and TAF reports).

The available stations are represented by yellow and red dots on the map.

Hover mouse over dot to see the name of the station.

Then click to see weather observations and forecasts.

To change the map : click on the green buttons with a black cross to zoom in, on the green button with a dash to zoom out, or on the green arrows for adjacent maps.


METAR-TAF: